Time;durP1;ratioP1;P1;durP2;ratioP2;P2;SDS_P1;SDS_P2;PMS_P1;PMS_P2;Temp;Humidity;BMP_temperature;BMP_pressure;BME280_temperature;BME280_humidity;BME280_pressure;Samples;Min_cycle;Max_cycle;Signal;HPM_P1;HPM_P2
2023/12/04 06:19:28;;;;;;;;;;;;;;;-2.86;100.00;100610.69;1825286;77;20159;-75
2023/12/04 06:21:54;;;;;;;;;;;;;;;-2.78;100.00;100611.58;1833551;77;20080;-68
2023/12/04 06:27:22;;;;;;;;;;;;;;;-2.63;100.00;100613.80;1763330;79;20145;-70
2023/12/04 06:29:58;;;;;;;;;;;;;;;-2.54;100.00;100616.00;1786958;78;20110;-69
2023/12/04 06:32:22;;;;;;;;;;;;;;;-2.47;100.00;100620.30;1787877;79;20191;-70
2023/12/04 06:34:50;;;;;;;;;;;;;;;-2.41;100.00;100624.16;1778430;80;20096;-74
2023/12/04 06:37:17;;;;;;;;;;;;;;;-2.36;100.00;100622.88;1766108;80;20132;-75
2023/12/04 06:39:45;;;;;;;;;;;;;;;-2.32;100.00;100618.66;1758421;80;20159;-70
2023/12/04 06:42:12;;;;;;;;;;;;;;;-2.28;100.00;100613.58;1782762;79;20160;-73
2023/12/04 06:44:39;;;;;;;;;;;;;;;-2.24;100.00;100619.13;1762366;79;20103;-75
2023/12/04 06:47:06;;;;;;;;;;;;;;;-2.20;100.00;100621.28;1790030;79;20123;-78
2023/12/04 06:49:33;;;;;;;;;;;;;;;-2.15;100.00;100620.46;1770898;79;20125;-75
2023/12/04 06:52:00;;;;;;;;;;;;;;;-2.10;100.00;100635.38;1774750;79;20122;-78
2023/12/04 06:54:27;;;;;;;;;;;;;;;-2.05;100.00;100640.08;1786673;79;20482;-72
2023/12/04 06:56:54;;;;;;;;;;;;;;;-1.99;100.00;100643.47;1784548;79;20097;-74
2023/12/04 06:59:21;;;;;;;;;;;;;;;-1.92;100.00;100649.04;1777932;79;20093;-71
2023/12/04 07:01:47;;;;;;;;;;;;;;;-1.87;100.00;100647.36;1769164;79;20123;-69
2023/12/04 07:04:20;;;;;;;;;;;;;;;-1.81;100.00;100652.50;1787594;78;20096;-73
2023/12/04 07:06:48;;;;;;;;;;;;;;;-1.75;100.00;100647.42;1780463;79;20135;-81
2023/12/04 07:09:16;;;;;;;;;;;;;;;-1.70;100.00;100647.02;1747814;79;20134;-77
2023/12/04 07:11:43;;;;;;;;;;;;;;;-1.62;100.00;100645.34;1790043;79;20092;-75
2023/12/04 07:14:10;;;;;;;;;;;;;;;-1.58;100.00;100648.30;1774497;79;20412;-74
2023/12/04 07:16:42;;;;;;;;;;;;;;;-1.54;100.00;100651.30;1788949;79;20125;-76
2023/12/04 07:19:10;;;;;;;;;;;;;;;-1.49;100.00;100653.45;1793954;79;20086;-77
2023/12/04 07:21:37;;;;;;;;;;;;;;;-1.45;100.00;100655.16;1795762;79;20130;-74
2023/12/04 07:24:04;;;;;;;;;;;;;;;-1.40;100.00;100656.45;1794014;79;20187;-78
2023/12/04 07:26:31;;;;;;;;;;;;;;;-1.36;100.00;100658.16;1781421;79;20094;-77
2023/12/04 07:28:58;;;;;;;;;;;;;;;-1.35;100.00;100664.56;1789111;79;20177;-72
2023/12/04 07:31:26;;;;;;;;;;;;;;;-1.32;100.00;100674.36;1772603;79;20286;-77
2023/12/04 07:33:56;;;;;;;;;;;;;;;-1.30;100.00;100677.34;1801925;79;20184;-76
2023/12/04 07:36:24;;;;;;;;;;;;;;;-1.29;100.00;100676.92;1779314;80;20109;-77
2023/12/04 07:38:53;;;;;;;;;;;;;;;-1.31;100.00;100681.17;1782081;79;20396;-73
2023/12/04 07:41:20;;;;;;;;;;;;;;;-1.33;100.00;100678.61;1781508;78;20123;-73
2023/12/04 07:43:47;;;;;;;;;;;;;;;-1.31;100.00;100679.89;1792532;79;20102;-72
2023/12/04 07:46:14;;;;;;;;;;;;;;;-1.26;100.00;100685.45;1806143;79;20122;-75
2023/12/04 07:48:40;;;;;;;;;;;;;;;-1.21;100.00;100679.92;1791964;79;20127;-72
2023/12/04 07:51:13;;;;;;;;;;;;;;;-1.16;100.00;100677.34;1775067;79;20191;-72
2023/12/04 07:53:40;;;;;;;;;;;;;;;-1.10;100.00;100681.20;1785873;79;20420;-72
2023/12/04 07:56:07;;;;;;;;;;;;;;;-1.08;100.00;100689.72;1788655;78;20224;-77
2023/12/04 07:58:34;;;;;;;;;;;;;;;-1.04;100.00;100693.98;1781329;78;20154;-76
2023/12/04 08:01:01;;;;;;;;;;;;;;;-1.02;100.00;100692.29;1776780;79;20472;-78
2023/12/04 08:03:27;;;;;;;;;;;;;;;-1.03;100.00;100695.27;1780981;79;20101;-72
2023/12/04 08:05:54;;;;;;;;;;;;;;;-1.02;100.00;100702.52;1778321;78;20273;-73
2023/12/04 08:08:21;;;;;;;;;;;;;;;-1.06;100.00;100696.54;1787232;78;20133;-72
2023/12/04 08:10:50;;;;;;;;;;;;;;;-1.09;100.00;100697.81;1787109;79;20160;-77
2023/12/04 08:13:17;;;;;;;;;;;;;;;-1.14;100.00;100698.65;1783991;79;20195;-78
2023/12/04 08:15:44;;;;;;;;;;;;;;;-1.15;100.00;100700.35;1778575;78;20199;-79
2023/12/04 08:18:11;;;;;;;;;;;;;;;-1.13;100.00;100691.41;1790572;79;20396;-75
2023/12/04 08:20:38;;;;;;;;;;;;;;;-1.13;100.00;100704.19;1781239;79;20083;-77
2023/12/04 08:23:07;;;;;;;;;;;;;;;-1.17;100.00;100702.05;1789045;79;20391;-78
2023/12/04 08:25:36;;;;;;;;;;;;;;;-1.21;100.00;100713.56;1800516;79;20127;-81
2023/12/04 08:28:03;;;;;;;;;;;;;;;-1.24;100.00;100710.58;1789566;79;20186;-73
2023/12/04 08:30:30;;;;;;;;;;;;;;;-1.23;100.00;100711.43;1780068;79;20129;-78
2023/12/04 08:32:57;;;;;;;;;;;;;;;-1.21;100.00;100709.31;1776956;79;20139;-78
2023/12/04 08:35:24;;;;;;;;;;;;;;;-1.20;100.00;100714.81;1783136;79;20133;-74
2023/12/04 08:37:51;;;;;;;;;;;;;;;-1.21;100.00;100702.06;1774024;79;20106;-77
2023/12/04 08:40:17;;;;;;;;;;;;;;;-1.24;100.00;100698.23;1779446;79;20383;-77
2023/12/04 08:42:45;;;;;;;;;;;;;;;-1.24;100.00;100699.50;1731301;81;20213;-75
2023/12/04 08:45:12;;;;;;;;;;;;;;;-1.25;100.00;100709.30;1726002;82;20543;-80
2023/12/04 08:50:25;;;;;;;;;;;;;;;-1.22;100.00;100702.49;1736887;81;20135;-69
2023/12/04 08:52:52;;;;;;;;;;;;;;;-1.19;100.00;100706.72;1745342;81;20145;-70
2023/12/04 08:55:19;;;;;;;;;;;;;;;-1.17;100.00;100705.88;1743262;80;20482;-70
2023/12/04 08:57:45;;;;;;;;;;;;;;;-1.14;100.00;100702.48;1702149;82;20427;-68
2023/12/04 09:00:13;;;;;;;;;;;;;;;-1.13;100.00;100700.36;1744844;80;20502;-70
2023/12/04 09:02:41;;;;;;;;;;;;;;;-1.13;100.00;100698.66;1729680;80;20115;-69
2023/12/04 09:05:08;;;;;;;;;;;;;;;-1.10;100.00;100699.09;1742192;81;20154;-71
2023/12/04 09:07:36;;;;;;;;;;;;;;;-1.06;100.00;100702.93;1739551;81;20154;-75
2023/12/04 09:10:04;;;;;;;;;;;;;;;-1.04;100.00;100700.38;1747754;80;20153;-76
2023/12/04 09:12:31;;;;;;;;;;;;;;;-1.03;100.00;100702.09;1749495;81;20181;-73
2023/12/04 09:14:58;;;;;;;;;;;;;;;-1.02;100.00;100697.40;1744882;81;20163;-74
2023/12/04 09:17:24;;;;;;;;;;;;;;;-0.99;100.00;100703.80;1739923;82;20121;-70
2023/12/04 09:19:51;;;;;;;;;;;;;;;-1.00;100.00;100698.26;1706458;83;20156;-75
2023/12/04 09:22:17;;;;;;;;;;;;;;;-0.98;100.00;100693.14;1745619;82;20109;-75
2023/12/04 09:24:47;;;;;;;;;;;;;;;-0.98;100.00;100700.39;1743962;81;20191;-76
2023/12/04 09:27:14;;;;;;;;;;;;;;;-0.97;100.00;100697.41;1734636;81;20099;-78
2023/12/04 09:29:41;;;;;;;;;;;;;;;-0.96;100.00;100694.86;1730150;81;20091;-74
2023/12/04 09:32:08;;;;;;;;;;;;;;;-0.91;100.00;100689.33;1738580;81;20101;-76
2023/12/04 09:34:37;;;;;;;;;;;;;;;-0.86;100.00;100690.19;1732338;80;20123;-76
2023/12/04 09:37:04;;;;;;;;;;;;;;;-0.83;100.00;100695.30;1735871;81;20134;-79
2023/12/04 09:39:32;;;;;;;;;;;;;;;-0.80;100.00;100696.55;1785552;80;20107;-77
2023/12/04 09:41:58;;;;;;;;;;;;;;;-0.75;100.00;100692.30;1785489;80;20398;-72
2023/12/04 09:44:26;;;;;;;;;;;;;;;-0.70;100.00;100691.88;1783163;80;20139;-75
2023/12/04 09:46:52;;;;;;;;;;;;;;;-0.62;100.00;100693.59;1769067;80;20386;-76
2023/12/04 09:49:19;;;;;;;;;;;;;;;-0.57;100.00;100691.88;1778576;80;20105;-74
2023/12/04 09:51:47;;;;;;;;;;;;;;;-0.53;100.00;100695.72;1795481;79;20113;-73
2023/12/04 09:54:15;;;;;;;;;;;;;;;-0.46;100.00;100691.46;1799452;79;20087;-76
2023/12/04 09:56:41;;;;;;;;;;;;;;;-0.39;100.00;100692.70;1806911;79;20099;-74
2023/12/04 09:59:09;;;;;;;;;;;;;;;-0.32;100.00;100679.48;1785177;79;20380;-79
2023/12/04 10:01:36;;;;;;;;;;;;;;;-0.24;100.00;100689.28;1773570;79;20852;-78
2023/12/04 10:04:05;;;;;;;;;;;;;;;-0.18;100.00;100685.86;1770992;80;20239;-76
2023/12/04 10:06:32;;;;;;;;;;;;;;;-0.17;100.00;100688.84;1725346;80;20796;-76
2023/12/04 10:08:59;;;;;;;;;;;;;;;-0.15;100.00;100690.55;1740009;82;20296;-74
2023/12/04 10:11:26;;;;;;;;;;;;;;;-0.13;100.00;100693.96;1735498;81;20438;-74
2023/12/04 10:13:54;;;;;;;;;;;;;;;-0.09;100.00;100698.22;1755029;81;20096;-73
2023/12/04 10:16:34;;;;;;;;;;;;;;;-0.04;100.00;100691.81;1756081;81;20135;-71
2023/12/04 10:19:16;;;;;;;;;;;;;;;0.02;100.00;100694.33;1726901;81;20105;-74
2023/12/04 10:21:43;;;;;;;;;;;;;;;0.05;100.00;100694.75;1704372;83;20113;-74
2023/12/04 10:24:10;;;;;;;;;;;;;;;0.08;100.00;100695.59;1709928;83;20801;-79
2023/12/04 14:34:45;;;;;;;;;;;;;;;-1.27;100.00;100723.34;1787608;79;20186;-69
2023/12/04 14:37:13;;;;;;;;;;;;;;;-1.27;100.00;100725.05;1780360;79;20203;-72
2023/12/04 14:42:12;;;;;;;;;;;;;;;-1.30;100.00;100730.14;1786474;79;20630;-68
2023/12/04 14:44:39;;;;;;;;;;;;;;;-1.34;100.00;100726.72;1780753;79;20115;-68
2023/12/04 14:47:08;;;;;;;;;;;;;;;-1.36;100.00;100725.86;1779012;79;20109;-69
2023/12/04 14:49:35;;;;;;;;;;;;;;;-1.37;100.00;100728.84;1787807;79;20157;-71
2023/12/04 14:52:03;;;;;;;;;;;;;;;-1.36;100.00;100732.25;1780546;79;20180;-74
